createdAt,value
2023-01-20T00:00:17.741Z,4.43
2023-01-20T00:02:44.481Z,5.15
2023-01-20T00:05:11.058Z,4.55
2023-01-20T00:07:37.949Z,4.75
2023-01-20T00:10:04.857Z,4.60
2023-01-20T00:12:31.914Z,5.60
2023-01-20T00:14:58.560Z,4.40
2023-01-20T00:17:25.109Z,5.05
2023-01-20T00:19:51.504Z,4.65
2023-01-20T00:22:18.144Z,5.20
2023-01-20T00:24:44.597Z,5.22
2023-01-20T00:27:12.207Z,5.68
2023-01-20T00:29:38.720Z,5.03
2023-01-20T00:32:05.379Z,5.10
2023-01-20T00:34:31.829Z,5.20
2023-01-20T00:36:58.380Z,5.30
2023-01-20T00:39:24.742Z,5.80
2023-01-20T00:41:51.265Z,4.43
2023-01-20T00:44:17.653Z,5.50
2023-01-20T00:46:44.264Z,5.72
2023-01-20T00:49:11.282Z,5.25
2023-01-20T00:51:37.807Z,4.88
2023-01-20T00:54:04.488Z,4.70
2023-01-20T00:56:31.122Z,4.88
2023-01-20T00:58:57.718Z,5.05
2023-01-20T01:01:24.460Z,5.03
2023-01-20T01:03:54.372Z,5.28
2023-01-20T01:06:21.152Z,5.00
2023-01-20T01:08:47.570Z,5.38
2023-01-20T01:11:14.491Z,5.47
2023-01-20T01:13:41.418Z,5.28
2023-01-20T01:16:14.873Z,5.32
2023-01-20T01:18:42.324Z,5.80
2023-01-20T01:21:11.065Z,5.63
2023-01-20T01:23:37.663Z,6.32
2023-01-20T01:26:04.410Z,6.20
2023-01-20T01:28:31.503Z,5.63
2023-01-20T01:31:02.770Z,6.60
2023-01-20T01:33:31.628Z,5.30
2023-01-20T01:35:59.923Z,6.57
2023-01-20T01:38:27.817Z,6.35
2023-01-20T01:40:55.183Z,5.68
2023-01-20T01:43:31.197Z,5.38
2023-01-20T01:45:58.132Z,6.25
2023-01-20T01:48:36.833Z,5.30
2023-01-20T01:51:08.933Z,6.72
2023-01-20T01:53:53.786Z,6.38
2023-01-20T01:56:22.901Z,6.47
2023-01-20T01:58:54.006Z,6.30
2023-01-20T02:01:20.877Z,6.05
2023-01-20T02:04:03.324Z,5.90
2023-01-20T02:06:33.622Z,5.80
2023-01-20T02:09:04.913Z,5.78
2023-01-20T02:11:45.240Z,5.95
2023-01-20T02:14:12.014Z,5.97
2023-01-20T02:16:41.651Z,6.43
2023-01-20T02:19:35.822Z,5.80
2023-01-20T02:22:37.783Z,6.07
2023-01-20T02:25:33.520Z,5.70
2023-01-20T02:30:54.018Z,5.13
2023-01-20T02:33:30.344Z,6.05
2023-01-20T02:36:27.044Z,6.07
2023-01-20T02:39:03.019Z,5.90
2023-01-20T02:41:49.001Z,6.35
2023-01-20T02:44:30.820Z,5.72
2023-01-20T02:47:29.517Z,5.90
2023-01-20T02:50:12.442Z,6.38
2023-01-20T02:52:44.268Z,5.43
2023-01-20T02:55:17.135Z,6.28
2023-01-20T02:57:51.518Z,7.13
2023-01-20T03:00:25.592Z,5.63
2023-01-20T03:02:55.158Z,5.97
2023-01-20T03:05:27.444Z,6.03
2023-01-20T03:07:55.543Z,7.30
2023-01-20T03:10:26.500Z,6.88
2023-01-20T03:13:41.981Z,5.65
2023-01-20T03:16:28.371Z,5.78
2023-01-20T03:18:55.397Z,6.38
2023-01-20T03:21:21.948Z,5.97
2023-01-20T03:23:54.378Z,6.13
2023-01-20T03:26:22.962Z,6.50
2023-01-20T03:28:49.930Z,5.93
2023-01-20T03:31:19.043Z,5.40
2023-01-20T03:33:47.723Z,6.05
2023-01-20T03:36:16.183Z,5.53
2023-01-20T03:38:44.929Z,5.95
2023-01-20T03:41:17.681Z,6.38
2023-01-20T03:44:11.623Z,6.95
2023-01-20T03:46:47.153Z,5.68
2023-01-20T03:49:29.588Z,6.10
2023-01-20T03:52:08.876Z,6.03
2023-01-20T03:54:46.667Z,5.90
2023-01-20T03:57:18.316Z,5.72
2023-01-20T03:59:49.184Z,5.45
2023-01-20T04:02:15.666Z,5.10
2023-01-20T04:04:45.335Z,5.45
2023-01-20T04:07:19.132Z,5.75
2023-01-20T04:09:50.122Z,5.88
2023-01-20T04:12:16.752Z,5.40
2023-01-20T04:14:43.196Z,5.68
2023-01-20T04:17:10.107Z,5.47
2023-01-20T04:19:36.669Z,5.57
2023-01-20T04:22:09.705Z,5.03
2023-01-20T04:24:58.183Z,5.97
2023-01-20T04:27:24.613Z,5.60
2023-01-20T04:29:51.103Z,6.10
2023-01-20T04:32:17.600Z,5.70
2023-01-20T04:34:44.051Z,5.72
2023-01-20T04:37:10.601Z,5.50
2023-01-20T04:39:37.060Z,5.85
2023-01-20T04:42:03.973Z,4.90
2023-01-20T04:44:30.358Z,4.90
2023-01-20T04:46:59.967Z,6.15
2023-01-20T04:49:26.476Z,6.32
2023-01-20T04:51:53.047Z,6.30
2023-01-20T04:54:19.538Z,6.45
2023-01-20T04:56:48.809Z,5.72
2023-01-20T04:59:15.205Z,6.70
2023-01-20T05:01:41.833Z,6.35
2023-01-20T05:04:08.355Z,6.75
2023-01-20T05:06:35.420Z,7.20
2023-01-20T05:09:01.973Z,7.68
2023-01-20T05:11:28.458Z,6.93
2023-01-20T05:13:54.930Z,7.82
2023-01-20T05:16:24.965Z,6.82
2023-01-20T05:18:51.384Z,7.35
2023-01-20T05:21:17.754Z,6.88
2023-01-20T05:23:44.305Z,7.65
2023-01-20T05:26:11.383Z,6.80
2023-01-20T05:28:37.997Z,7.90
2023-01-20T05:31:04.730Z,8.02
2023-01-20T05:33:31.337Z,6.90
2023-01-20T05:35:57.816Z,7.55
2023-01-20T05:38:24.444Z,7.10
2023-01-20T05:40:50.875Z,7.30
2023-01-20T05:43:17.400Z,6.50
2023-01-20T05:45:43.870Z,7.10
2023-01-20T05:48:10.551Z,7.65
2023-01-20T05:50:37.067Z,7.18
2023-01-20T05:53:03.834Z,7.05
2023-01-20T05:55:30.274Z,6.85
2023-01-20T05:57:56.786Z,6.28
2023-01-20T06:00:23.449Z,6.60
2023-01-20T06:02:49.993Z,6.55
2023-01-20T06:05:16.942Z,6.78
2023-01-20T06:07:43.669Z,6.65
2023-01-20T06:10:10.818Z,7.25
2023-01-20T06:12:37.292Z,6.82
2023-01-20T06:15:04.809Z,7.50
2023-01-20T06:17:31.243Z,6.80
2023-01-20T06:19:58.490Z,8.27
2023-01-20T06:22:25.997Z,7.13
2023-01-20T06:24:52.420Z,6.85
2023-01-20T06:27:19.684Z,7.47
2023-01-20T06:29:46.304Z,6.38
2023-01-20T06:32:12.781Z,6.85
2023-01-20T06:34:39.389Z,7.10
2023-01-20T06:37:07.110Z,6.68
2023-01-20T06:39:33.556Z,7.93
2023-01-20T06:42:00.592Z,7.28
2023-01-20T06:44:27.439Z,6.80
2023-01-20T06:46:54.240Z,7.32
2023-01-20T06:49:20.875Z,7.68
2023-01-20T06:51:48.710Z,6.82
2023-01-20T06:54:16.355Z,6.65
2023-01-20T06:56:42.837Z,6.97
2023-01-20T06:59:11.189Z,6.72
2023-01-20T07:01:38.208Z,7.07
2023-01-20T07:04:04.850Z,7.05
2023-01-20T07:06:34.761Z,6.00
2023-01-20T07:09:02.041Z,7.25
2023-01-20T07:11:31.283Z,7.32
2023-01-20T07:13:59.355Z,6.47
2023-01-20T07:16:25.867Z,7.78
2023-01-20T07:18:53.629Z,7.32
2023-01-20T07:21:20.702Z,6.13
2023-01-20T07:23:47.948Z,8.18
2023-01-20T07:26:20.581Z,7.57
2023-01-20T07:28:48.039Z,8.05
2023-01-20T07:31:19.307Z,7.00
2023-01-20T07:33:46.732Z,7.93
2023-01-20T07:36:14.415Z,8.32
2023-01-20T07:38:41.067Z,8.35
2023-01-20T07:41:16.747Z,7.35
2023-01-20T07:43:47.212Z,7.65
2023-01-20T07:46:14.255Z,7.38
2023-01-20T07:48:40.834Z,7.72
2023-01-20T07:51:10.759Z,8.80
2023-01-20T07:53:39.899Z,8.10
2023-01-20T07:56:10.022Z,8.05
2023-01-20T07:58:36.625Z,7.18
2023-01-20T08:01:11.347Z,8.68
2023-01-20T08:03:37.959Z,8.30
2023-01-20T08:06:05.978Z,9.48
2023-01-20T08:08:33.045Z,8.80
2023-01-20T08:11:01.568Z,8.63
2023-01-20T08:13:32.010Z,8.88
2023-01-20T08:16:08.126Z,8.07
2023-01-20T08:18:35.663Z,8.55
2023-01-20T08:21:08.165Z,8.80
2023-01-20T08:23:35.879Z,9.10
2023-01-20T08:26:05.760Z,9.57
2023-01-20T08:28:36.913Z,8.23
2023-01-20T08:31:10.313Z,9.15
2023-01-20T08:33:37.690Z,9.45
2023-01-20T08:36:06.942Z,8.10
2023-01-20T08:38:33.717Z,9.52
2023-01-20T08:41:00.206Z,9.38
2023-01-20T08:43:26.916Z,8.60
2023-01-20T08:46:08.366Z,8.15
2023-01-20T08:48:36.206Z,8.80
2023-01-20T08:51:12.154Z,9.35
2023-01-20T08:53:38.691Z,9.93
2023-01-20T08:56:05.611Z,8.93
2023-01-20T08:58:32.387Z,8.63
2023-01-20T09:00:59.786Z,9.65
2023-01-20T09:03:26.500Z,8.80
2023-01-20T09:05:53.287Z,8.57
2023-01-20T09:08:20.800Z,9.32
2023-01-20T09:10:47.549Z,9.52
2023-01-20T09:13:14.608Z,9.77
2023-01-20T09:15:41.211Z,9.73
2023-01-20T09:18:07.654Z,9.68
2023-01-20T09:20:34.341Z,8.75
2023-01-20T09:23:02.737Z,11.30
2023-01-20T09:25:29.203Z,8.90
2023-01-20T09:27:55.829Z,9.70
2023-01-20T09:30:22.246Z,9.07
2023-01-20T09:32:53.041Z,8.40
2023-01-20T09:35:19.423Z,10.68
2023-01-20T09:38:04.638Z,9.82
2023-01-20T09:41:10.736Z,8.65
2023-01-20T09:43:56.861Z,9.23
2023-01-20T09:46:44.716Z,9.65
2023-01-20T09:49:36.443Z,9.95
2023-01-20T09:53:03.263Z,10.10
2023-01-20T09:55:52.130Z,9.45
2023-01-20T09:58:36.995Z,10.60
2023-01-20T10:01:38.783Z,10.18
2023-01-20T10:04:22.710Z,9.77
2023-01-20T10:06:59.530Z,10.30
2023-01-20T10:09:45.952Z,15.05
2023-01-20T10:12:21.985Z,9.57
2023-01-20T10:15:13.366Z,8.60
2023-01-20T10:17:55.211Z,9.77
2023-01-20T10:20:31.920Z,9.77
2023-01-20T10:23:12.280Z,9.02
2023-01-20T10:25:47.428Z,10.43
2023-01-20T10:28:34.899Z,9.30
2023-01-20T10:31:04.310Z,10.25
2023-01-20T10:33:38.698Z,9.20
2023-01-20T10:36:13.747Z,8.13
2023-01-20T10:41:19.590Z,7.68
2023-01-20T10:43:50.134Z,15.65
2023-01-20T10:46:31.293Z,13.65
2023-01-20T10:49:35.214Z,9.38
2023-01-20T10:52:23.347Z,10.32
2023-01-20T10:54:59.210Z,17.17
2023-01-20T10:57:26.176Z,9.30
2023-01-20T11:00:07.466Z,8.95
2023-01-20T11:02:37.842Z,9.52
2023-01-20T11:05:26.119Z,8.32
2023-01-20T11:07:54.416Z,7.60
2023-01-20T11:10:25.075Z,9.65
2023-01-20T11:12:54.924Z,8.90
2023-01-20T11:15:26.208Z,8.40
2023-01-20T11:18:14.436Z,10.25
2023-01-20T11:20:52.748Z,10.48
2023-01-20T11:23:23.843Z,9.82
2023-01-20T11:25:56.600Z,10.70
2023-01-20T11:28:24.460Z,8.63
2023-01-20T11:30:53.789Z,9.20
2023-01-20T11:33:22.208Z,10.07
2023-01-20T11:36:00.080Z,10.02
2023-01-20T11:38:48.342Z,10.15
2023-01-20T11:41:26.678Z,11.82
2023-01-20T11:43:58.650Z,11.35
2023-01-20T11:46:30.045Z,11.02
2023-01-20T11:49:26.158Z,9.68
2023-01-20T11:51:57.168Z,9.70
2023-01-20T11:54:26.981Z,9.68
2023-01-20T11:56:57.120Z,9.38
2023-01-20T11:59:31.985Z,8.60
2023-01-20T12:02:04.534Z,8.73
2023-01-20T12:04:53.699Z,8.57
2023-01-20T12:07:52.438Z,10.90
2023-01-20T12:10:27.067Z,12.27
2023-01-20T12:13:13.731Z,19.25
2023-01-20T12:15:52.996Z,13.45
2023-01-20T12:19:01.691Z,9.65
2023-01-20T12:21:37.238Z,10.77
2023-01-20T12:24:20.821Z,9.27
2023-01-20T12:26:48.039Z,10.05
2023-01-20T12:29:22.607Z,10.45
2023-01-20T12:31:49.568Z,10.13
2023-01-20T12:34:23.184Z,9.35
2023-01-20T12:37:26.934Z,10.55
2023-01-20T12:39:59.215Z,8.93
2023-01-20T12:42:41.337Z,9.63
2023-01-20T12:45:23.863Z,10.45
2023-01-20T12:48:34.971Z,10.75
2023-01-20T12:51:44.771Z,12.70
2023-01-20T12:54:48.315Z,9.63
2023-01-20T12:57:46.551Z,10.32
2023-01-20T13:00:47.103Z,9.68
2023-01-20T13:03:26.101Z,8.15
2023-01-20T13:06:13.672Z,9.95
2023-01-20T13:09:23.733Z,7.55
2023-01-20T13:11:59.251Z,7.97
2023-01-20T13:14:41.130Z,9.45
2023-01-20T13:17:28.181Z,9.20
2023-01-20T13:19:58.995Z,7.95
2023-01-20T13:22:26.173Z,7.70
2023-01-20T13:24:55.484Z,9.65
2023-01-20T13:27:29.088Z,11.25
2023-01-20T13:29:58.286Z,9.10
2023-01-20T13:32:43.124Z,8.82
2023-01-20T13:35:15.948Z,6.88
2023-01-20T13:37:49.271Z,7.40
2023-01-20T13:40:38.471Z,7.45
2023-01-20T13:43:25.315Z,8.33
2023-01-20T13:46:07.193Z,9.98
2023-01-20T13:48:36.115Z,18.05
2023-01-20T13:51:21.349Z,7.93
2023-01-20T13:53:47.923Z,7.93
2023-01-20T13:56:29.120Z,10.20
2023-01-20T13:58:58.173Z,9.43
2023-01-20T14:01:26.247Z,9.18
2023-01-20T14:04:03.768Z,8.35
2023-01-20T14:06:32.986Z,8.80
2023-01-20T14:09:01.388Z,7.70
2023-01-20T14:11:29.486Z,7.82
2023-01-20T14:13:57.013Z,8.68
2023-01-20T14:16:29.030Z,7.70
2023-01-20T14:18:59.083Z,8.77
2023-01-20T14:21:28.067Z,11.75
2023-01-20T14:23:54.523Z,10.55
2023-01-20T14:26:22.757Z,10.27
2023-01-20T14:28:52.533Z,10.57
2023-01-20T14:31:22.988Z,10.85
2023-01-20T14:34:03.671Z,12.80
2023-01-20T14:36:32.954Z,19.58
2023-01-20T14:39:04.064Z,12.60
2023-01-20T14:41:46.940Z,10.02
2023-01-20T14:44:24.222Z,10.98
2023-01-20T14:46:54.037Z,9.52
2023-01-20T14:49:22.867Z,9.82
2023-01-20T14:51:50.519Z,11.60
2023-01-20T14:54:44.235Z,10.80
2023-01-20T14:57:16.748Z,9.50
2023-01-20T14:59:44.100Z,13.50
2023-01-20T15:02:30.568Z,19.33
2023-01-20T15:04:57.160Z,12.43
2023-01-20T15:07:25.366Z,15.82
2023-01-20T15:10:08.646Z,14.43
2023-01-20T15:12:39.561Z,12.80
2023-01-20T15:15:06.282Z,14.30
2023-01-20T15:17:33.225Z,9.10
2023-01-20T15:19:59.900Z,9.73
2023-01-20T15:22:27.612Z,9.88
2023-01-20T15:24:54.631Z,10.23
2023-01-20T15:27:23.963Z,9.43
2023-01-20T15:30:18.700Z,11.38
2023-01-20T15:32:47.459Z,8.50
2023-01-20T15:35:16.247Z,11.80
2023-01-20T15:37:44.091Z,18.45
2023-01-20T15:40:19.298Z,21.73
2023-01-20T15:42:47.251Z,9.98
2023-01-20T15:45:14.987Z,9.60
2023-01-20T15:47:42.550Z,9.02
2023-01-20T15:50:15.190Z,8.63
2023-01-20T15:52:42.135Z,10.38
2023-01-20T15:55:13.019Z,12.90
2023-01-20T15:57:40.273Z,12.50
2023-01-20T16:00:07.763Z,11.68
2023-01-20T16:02:34.232Z,9.27
2023-01-20T16:05:00.793Z,8.75
2023-01-20T16:07:27.926Z,11.43
2023-01-20T16:09:54.389Z,12.10
2023-01-20T16:12:20.962Z,10.65
2023-01-20T16:14:47.585Z,11.48
2023-01-20T16:17:16.443Z,10.20
2023-01-20T16:19:42.960Z,8.65
2023-01-20T16:22:10.489Z,9.68
2023-01-20T16:24:37.924Z,8.85
2023-01-20T16:27:19.786Z,8.68
2023-01-20T16:29:46.724Z,8.43
2023-01-20T16:32:16.695Z,8.30
2023-01-20T16:34:44.177Z,7.95
2023-01-20T16:37:14.224Z,7.72
2023-01-20T16:39:40.671Z,8.18
2023-01-20T16:42:13.269Z,7.28
2023-01-20T16:44:39.826Z,7.50
2023-01-20T16:47:08.189Z,6.65
2023-01-20T16:49:34.568Z,9.05
2023-01-20T16:52:01.202Z,9.60
2023-01-20T16:54:27.640Z,7.78
2023-01-20T16:56:54.224Z,8.48
2023-01-20T16:59:20.717Z,9.52
2023-01-20T17:01:48.864Z,8.77
2023-01-20T17:04:15.535Z,9.45
2023-01-20T17:06:43.068Z,7.65
2023-01-20T17:09:09.992Z,9.32
2023-01-20T17:11:42.867Z,8.77
2023-01-20T17:14:11.092Z,7.53
2023-01-20T17:16:38.711Z,9.43
2023-01-20T17:19:05.857Z,8.38
2023-01-20T17:21:34.459Z,9.00
2023-01-20T17:24:03.353Z,8.40
2023-01-20T17:26:30.591Z,8.88
2023-01-20T17:29:00.173Z,7.78
2023-01-20T17:31:28.102Z,7.65
2023-01-20T17:33:54.558Z,7.43
2023-01-20T17:36:21.089Z,7.43
2023-01-20T17:38:47.502Z,7.72
2023-01-20T17:41:14.794Z,8.48
2023-01-20T17:43:48.144Z,7.57
2023-01-20T17:46:20.547Z,7.72
2023-01-20T17:48:47.267Z,8.32
2023-01-20T17:51:22.809Z,9.07
2023-01-20T17:53:50.339Z,8.40
2023-01-20T17:56:19.263Z,8.52
2023-01-20T17:58:46.777Z,8.90
2023-01-20T18:01:24.255Z,8.02
2023-01-20T18:03:53.160Z,9.45
2023-01-20T18:06:21.839Z,9.45
2023-01-20T18:08:53.569Z,10.00
2023-01-20T18:11:22.792Z,9.02
2023-01-20T18:13:51.696Z,9.57
2023-01-20T18:16:20.518Z,8.88
2023-01-20T18:18:48.153Z,9.60
2023-01-20T18:21:24.940Z,9.35
2023-01-20T18:23:52.003Z,9.90
2023-01-20T18:26:21.499Z,9.30
2023-01-20T18:28:48.686Z,9.93
2023-01-20T18:31:20.234Z,9.63
2023-01-20T18:33:49.570Z,9.73
2023-01-20T18:36:25.375Z,10.20
2023-01-20T18:39:01.168Z,10.13
2023-01-20T18:41:29.768Z,9.35
2023-01-20T18:43:57.928Z,9.68
2023-01-20T18:46:25.819Z,10.20
2023-01-20T18:48:55.255Z,9.40
2023-01-20T18:51:27.613Z,10.35
2023-01-20T18:54:00.372Z,11.00
2023-01-20T18:56:28.366Z,10.90
2023-01-20T18:58:55.979Z,9.68
2023-01-20T19:01:26.009Z,9.93
2023-01-20T19:03:53.445Z,11.05
2023-01-20T19:06:22.560Z,9.98
2023-01-20T19:08:49.961Z,10.23
2023-01-20T19:11:20.697Z,9.40
2023-01-20T19:13:51.185Z,11.32
2023-01-20T19:16:19.077Z,9.85
2023-01-20T19:18:51.293Z,10.52
2023-01-20T19:21:17.771Z,10.93
2023-01-20T19:23:48.866Z,11.00
2023-01-20T19:26:18.566Z,11.00
2023-01-20T19:28:46.687Z,10.20
2023-01-20T19:31:18.341Z,9.25
2023-01-20T19:33:46.080Z,10.07
2023-01-20T19:36:16.445Z,9.60
2023-01-20T19:38:43.114Z,11.27
2023-01-20T19:41:19.514Z,9.55
2023-01-20T19:43:46.554Z,9.65
2023-01-20T19:46:18.568Z,12.77
2023-01-20T19:48:45.181Z,12.45
2023-01-20T19:51:15.263Z,11.77
2023-01-20T19:53:43.415Z,10.82
2023-01-20T19:56:15.814Z,11.95
2023-01-20T19:58:43.431Z,11.57
2023-01-20T20:01:13.589Z,13.95
2023-01-20T20:03:40.322Z,11.32
2023-01-20T20:06:17.732Z,10.43
2023-01-20T20:08:46.641Z,11.15
2023-01-20T20:11:13.128Z,10.80
2023-01-20T20:13:39.554Z,13.13
2023-01-20T20:16:06.483Z,12.68
2023-01-20T20:18:33.259Z,12.25
2023-01-20T20:20:59.774Z,12.18
2023-01-20T20:23:26.709Z,11.20
2023-01-20T20:25:57.426Z,12.20
2023-01-20T20:28:28.346Z,11.68
2023-01-20T20:30:58.259Z,12.20
2023-01-20T20:33:24.909Z,12.73
2023-01-20T20:35:51.537Z,10.85
2023-01-20T20:38:17.922Z,10.30
2023-01-20T20:40:44.567Z,12.23
2023-01-20T20:43:10.985Z,10.68
2023-01-20T20:45:37.614Z,10.30
2023-01-20T20:48:04.660Z,9.77
2023-01-20T20:50:31.502Z,13.70
2023-01-20T20:52:58.941Z,17.70
2023-01-20T20:55:28.237Z,12.50
2023-01-20T20:57:54.710Z,13.50
2023-01-20T21:00:23.532Z,13.68
2023-01-20T21:02:50.297Z,11.48
2023-01-20T21:05:18.858Z,13.15
2023-01-20T21:07:45.822Z,12.52
2023-01-20T21:10:15.668Z,11.68
2023-01-20T21:12:44.258Z,13.07
2023-01-20T21:15:11.694Z,12.23
2023-01-20T21:17:38.799Z,11.90
2023-01-20T21:20:06.952Z,13.88
2023-01-20T21:22:34.256Z,12.57
2023-01-20T21:25:00.838Z,12.88
2023-01-20T21:27:27.384Z,12.82
2023-01-20T21:29:54.153Z,14.63
2023-01-20T21:32:20.746Z,13.45
2023-01-20T21:34:47.346Z,11.95
2023-01-20T21:37:13.898Z,12.88
2023-01-20T21:39:40.414Z,12.80
2023-01-20T21:42:07.525Z,12.90
2023-01-20T21:44:36.482Z,14.18
2023-01-20T21:47:05.480Z,13.27
2023-01-20T21:49:51.181Z,12.98
2023-01-20T21:52:38.976Z,12.88
2023-01-20T21:55:06.922Z,13.60
2023-01-20T21:57:33.501Z,12.35
2023-01-20T22:00:00.980Z,12.50
2023-01-20T22:02:28.695Z,15.10
2023-01-20T22:04:55.852Z,12.50
2023-01-20T22:07:24.499Z,13.60
2023-01-20T22:09:51.030Z,14.05
2023-01-20T22:12:17.706Z,12.32
2023-01-20T22:14:44.209Z,10.85
2023-01-20T22:17:11.851Z,11.43
2023-01-20T22:19:39.080Z,12.52
2023-01-20T22:22:06.225Z,11.43
2023-01-20T22:24:33.057Z,11.25
2023-01-20T22:26:59.848Z,10.90
2023-01-20T22:29:26.315Z,10.05
2023-01-20T22:31:54.452Z,11.05
2023-01-20T22:34:21.531Z,11.40
2023-01-20T22:36:48.251Z,10.40
2023-01-20T22:39:15.264Z,10.95
2023-01-20T22:41:41.860Z,11.30
2023-01-20T22:44:08.496Z,11.73
2023-01-20T22:46:35.041Z,9.95
2023-01-20T22:49:01.568Z,10.52
2023-01-20T22:51:29.742Z,9.93
2023-01-20T22:53:57.875Z,9.98
2023-01-20T22:56:27.313Z,10.80
2023-01-20T22:58:55.791Z,10.73
2023-01-20T23:01:33.447Z,11.82
2023-01-20T23:04:02.689Z,10.45
2023-01-20T23:06:32.454Z,11.25
2023-01-20T23:09:00.977Z,11.48
2023-01-20T23:11:27.594Z,10.02
2023-01-20T23:13:54.105Z,11.20
2023-01-20T23:16:22.561Z,11.48
2023-01-20T23:18:50.712Z,11.60
2023-01-20T23:21:17.822Z,10.60
2023-01-20T23:23:44.795Z,9.40
2023-01-20T23:26:17.748Z,9.77
2023-01-20T23:28:45.309Z,9.25
2023-01-20T23:31:14.870Z,10.23
2023-01-20T23:33:43.990Z,10.30
2023-01-20T23:36:20.103Z,9.25
2023-01-20T23:38:46.574Z,7.55
2023-01-20T23:41:14.454Z,9.98
2023-01-20T23:43:41.629Z,8.70
2023-01-20T23:46:09.404Z,10.73
2023-01-20T23:48:36.704Z,9.70
2023-01-20T23:51:03.975Z,9.30
2023-01-20T23:53:32.197Z,10.05
2023-01-20T23:56:03.986Z,9.88
2023-01-20T23:58:30.979Z,10.35
